This is the latest recevied weather packets stored in our database for station/object VA3ZFM-10. If no packets are shown the sender has not sent any weather packets the latest 1 day(s).
| Time | Temp. | Humidity | Pressure | Rain* | Wind** | Luminosity | Snow |
|---|---|---|---|---|---|---|---|
| 1778025429 | 8.33° C | 47% | 1006.5 hPa | 0 mm | 0.45 m/s, 243° | - | - |
| 1778025126 | 8.33° C | 47% | 1006.2 hPa | 0 mm | 0.89 m/s, 240° | - | - |
| 1778024823 | 8.89° C | 47% | 1006.2 hPa | 0 mm | 0 m/s | - | - |
| 1778024520 | 8.89° C | 46% | 1006.1 hPa | 0 mm | 0.89 m/s, 246° | - | - |
| 1778024216 | 8.89° C | 47% | 1006.4 hPa | 0 mm | 0 m/s | - | - |
| 1778023915 | 8.89° C | 47% | 1006.2 hPa | 0 mm | 0.45 m/s, 166° | - | - |
| 1778023612 | 8.89° C | 46% | 1006 hPa | 0 mm | 1.79 m/s, 217° | - | - |
| 1778023309 | 8.89° C | 47% | 1006.2 hPa | 0 mm | 0.45 m/s, 292° | - | - |
| 1778023006 | 8.89° C | 46% | 1006 hPa | 0 mm | 0.89 m/s, 333° | - | - |
| 1778022705 | 9.44° C | 46% | 1006.2 hPa | 0 mm | 0.89 m/s, 310° | - | - |
| 1778022402 | 9.44° C | 46% | 1006 hPa | 0 mm | 0.45 m/s, 233° | - | - |
| 1778022099 | 9.44° C | 47% | 1005.9 hPa | 0 mm | 0.89 m/s, 199° | - | - |
| 1778021795 | 9.44° C | 46% | 1005.8 hPa | 0 mm | 1.34 m/s, 333° | - | - |
| 1778021491 | 9.44° C | 46% | 1005.7 hPa | 0 mm | 1.34 m/s, 285° | - | - |
| 1778021188 | 9.44° C | 46% | 1005.9 hPa | 0 mm | 0.45 m/s, 244° | - | - |
| 1778020885 | 9.44° C | 47% | 1005.9 hPa | 0 mm | 0 m/s | - | - |
| 1778020582 | 9.44° C | 47% | 1005.7 hPa | 0 mm | 0 m/s | - | - |
| 1778020279 | 9.44° C | 47% | 1005.6 hPa | 0 mm | 0.89 m/s, 173° | - | - |
| 1778019975 | 9.44° C | 46% | 1005.7 hPa | 0 mm | 0.45 m/s, 114° | - | - |
| 1778019671 | 9.44° C | 45% | 1005.6 hPa | 0 mm | 1.79 m/s, 306° | - | - |
| 1778019369 | 9.44° C | 46% | 1005.6 hPa | 0 mm | 0.89 m/s, 241° | - | - |
| 1778019065 | 9.44° C | 46% | 1005.5 hPa | 0 mm | 1.34 m/s, 52° | - | - |
| 1778018762 | 9.44° C | 46% | 1005.4 hPa | 0 mm | 0.89 m/s, 270° | - | - |
| 1778018460 | 9.44° C | 47% | 1005.3 hPa | 0 mm | 0.45 m/s, 241° | - | - |
| 1778018158 | 9.44° C | 47% | 1005.4 hPa | 0 mm | 0.45 m/s, 197° | - | - |
* Rain latest hour (hover to see other rain measurements)
** Current wind speed in m/s (hover to see current wind gust speed)